sensor_id;sensor_type;location;lat;lon;timestamp;P1;durP1;ratioP1;P2;durP2;ratioP2
51184;SDS011;37248;59.350;18.050;2022-11-20T00:01:42;7.60;;;1.20;;
51184;SDS011;37248;59.350;18.050;2022-11-20T00:04:07;4.80;;;1.00;;
51184;SDS011;37248;59.350;18.050;2022-11-20T00:06:33;7.13;;;0.93;;
51184;SDS011;37248;59.350;18.050;2022-11-20T00:08:59;7.13;;;1.30;;
51184;SDS011;37248;59.350;18.050;2022-11-20T00:11:25;4.90;;;0.98;;
51184;SDS011;37248;59.350;18.050;2022-11-20T00:13:52;4.23;;;0.90;;
51184;SDS011;37248;59.350;18.050;2022-11-20T00:16:18;5.47;;;0.98;;
51184;SDS011;37248;59.350;18.050;2022-11-20T00:18:44;3.35;;;0.73;;
51184;SDS011;37248;59.350;18.050;2022-11-20T00:21:13;8.27;;;1.00;;
51184;SDS011;37248;59.350;18.050;2022-11-20T00:23:39;3.23;;;0.70;;
51184;SDS011;37248;59.350;18.050;2022-11-20T00:26:05;3.87;;;0.60;;
51184;SDS011;37248;59.350;18.050;2022-11-20T00:28:31;3.80;;;0.73;;
51184;SDS011;37248;59.350;18.050;2022-11-20T00:31:03;3.90;;;0.80;;
51184;SDS011;37248;59.350;18.050;2022-11-20T00:33:29;3.78;;;0.88;;
51184;SDS011;37248;59.350;18.050;2022-11-20T00:35:58;2.90;;;0.70;;
51184;SDS011;37248;59.350;18.050;2022-11-20T00:38:23;3.00;;;0.52;;
51184;SDS011;37248;59.350;18.050;2022-11-20T00:40:54;3.10;;;0.90;;
51184;SDS011;37248;59.350;18.050;2022-11-20T00:43:19;4.57;;;0.90;;
51184;SDS011;37248;59.350;18.050;2022-11-20T00:45:44;3.23;;;0.73;;
51184;SDS011;37248;59.350;18.050;2022-11-20T00:48:09;3.57;;;0.70;;
51184;SDS011;37248;59.350;18.050;2022-11-20T00:50:35;2.05;;;0.68;;
51184;SDS011;37248;59.350;18.050;2022-11-20T00:53:00;3.33;;;0.90;;
51184;SDS011;37248;59.350;18.050;2022-11-20T00:55:25;2.58;;;0.50;;
51184;SDS011;37248;59.350;18.050;2022-11-20T00:57:50;2.20;;;0.60;;
51184;SDS011;37248;59.350;18.050;2022-11-20T01:00:16;2.07;;;0.83;;
51184;SDS011;37248;59.350;18.050;2022-11-20T01:02:41;1.17;;;0.40;;
51184;SDS011;37248;59.350;18.050;2022-11-20T01:05:06;1.10;;;0.38;;
51184;SDS011;37248;59.350;18.050;2022-11-20T01:07:31;1.53;;;0.50;;
51184;SDS011;37248;59.350;18.050;2022-11-20T01:09:57;1.23;;;0.43;;
51184;SDS011;37248;59.350;18.050;2022-11-20T01:12:22;2.23;;;0.60;;
51184;SDS011;37248;59.350;18.050;2022-11-20T01:14:47;5.37;;;0.83;;
51184;SDS011;37248;59.350;18.050;2022-11-20T01:17:13;4.43;;;0.60;;
51184;SDS011;37248;59.350;18.050;2022-11-20T01:19:38;3.77;;;0.60;;
51184;SDS011;37248;59.350;18.050;2022-11-20T01:22:03;3.47;;;0.50;;
51184;SDS011;37248;59.350;18.050;2022-11-20T01:24:29;3.87;;;0.70;;
51184;SDS011;37248;59.350;18.050;2022-11-20T01:26:54;3.03;;;0.70;;
51184;SDS011;37248;59.350;18.050;2022-11-20T01:29:21;2.87;;;0.60;;
51184;SDS011;37248;59.350;18.050;2022-11-20T01:31:46;2.22;;;0.47;;
51184;SDS011;37248;59.350;18.050;2022-11-20T01:34:13;2.47;;;0.40;;
51184;SDS011;37248;59.350;18.050;2022-11-20T01:36:39;2.47;;;0.52;;
51184;SDS011;37248;59.350;18.050;2022-11-20T01:39:06;1.07;;;0.40;;
51184;SDS011;37248;59.350;18.050;2022-11-20T01:41:32;3.17;;;0.50;;
51184;SDS011;37248;59.350;18.050;2022-11-20T01:44:21;3.87;;;0.40;;
51184;SDS011;37248;59.350;18.050;2022-11-20T01:49:28;2.60;;;0.50;;
51184;SDS011;37248;59.350;18.050;2022-11-20T01:51:57;1.95;;;0.45;;
51184;SDS011;37248;59.350;18.050;2022-11-20T01:57:15;1.35;;;0.35;;
51184;SDS011;37248;59.350;18.050;2022-11-20T01:59:43;1.70;;;0.30;;
51184;SDS011;37248;59.350;18.050;2022-11-20T02:02:09;2.28;;;0.35;;
51184;SDS011;37248;59.350;18.050;2022-11-20T02:04:34;2.00;;;0.57;;
51184;SDS011;37248;59.350;18.050;2022-11-20T02:07:00;1.80;;;0.50;;
51184;SDS011;37248;59.350;18.050;2022-11-20T02:09:26;1.93;;;0.40;;
51184;SDS011;37248;59.350;18.050;2022-11-20T02:11:52;0.83;;;0.30;;
51184;SDS011;37248;59.350;18.050;2022-11-20T02:14:17;2.03;;;0.30;;
51184;SDS011;37248;59.350;18.050;2022-11-20T02:16:46;1.40;;;0.40;;
51184;SDS011;37248;59.350;18.050;2022-11-20T02:19:22;1.90;;;0.50;;
51184;SDS011;37248;59.350;18.050;2022-11-20T02:26:55;3.17;;;0.53;;
51184;SDS011;37248;59.350;18.050;2022-11-20T02:29:32;3.28;;;0.45;;
51184;SDS011;37248;59.350;18.050;2022-11-20T02:31:59;2.25;;;0.40;;
51184;SDS011;37248;59.350;18.050;2022-11-20T02:34:25;0.73;;;0.30;;
51184;SDS011;37248;59.350;18.050;2022-11-20T02:36:51;1.93;;;0.60;;
51184;SDS011;37248;59.350;18.050;2022-11-20T02:39:17;1.75;;;0.30;;
51184;SDS011;37248;59.350;18.050;2022-11-20T02:41:42;1.23;;;0.25;;
51184;SDS011;37248;59.350;18.050;2022-11-20T02:44:08;1.03;;;0.30;;
51184;SDS011;37248;59.350;18.050;2022-11-20T02:46:33;3.20;;;0.33;;
51184;SDS011;37248;59.350;18.050;2022-11-20T02:48:59;0.70;;;0.28;;
51184;SDS011;37248;59.350;18.050;2022-11-20T02:51:25;1.52;;;0.30;;
51184;SDS011;37248;59.350;18.050;2022-11-20T02:53:50;1.60;;;0.30;;
51184;SDS011;37248;59.350;18.050;2022-11-20T02:56:15;0.73;;;0.30;;
51184;SDS011;37248;59.350;18.050;2022-11-20T02:58:41;1.93;;;0.40;;
51184;SDS011;37248;59.350;18.050;2022-11-20T03:01:06;0.90;;;0.20;;
51184;SDS011;37248;59.350;18.050;2022-11-20T03:03:31;0.80;;;0.20;;
51184;SDS011;37248;59.350;18.050;2022-11-20T03:05:58;1.70;;;0.30;;
51184;SDS011;37248;59.350;18.050;2022-11-20T03:08:23;0.77;;;0.30;;
51184;SDS011;37248;59.350;18.050;2022-11-20T03:10:49;0.77;;;0.43;;
51184;SDS011;37248;59.350;18.050;2022-11-20T03:13:14;0.70;;;0.30;;
51184;SDS011;37248;59.350;18.050;2022-11-20T03:15:39;0.43;;;0.20;;
51184;SDS011;37248;59.350;18.050;2022-11-20T03:18:04;1.23;;;0.37;;
51184;SDS011;37248;59.350;18.050;2022-11-20T03:20:30;2.50;;;0.27;;
51184;SDS011;37248;59.350;18.050;2022-11-20T03:22:55;1.00;;;0.20;;
51184;SDS011;37248;59.350;18.050;2022-11-20T03:25:21;0.90;;;0.20;;
51184;SDS011;37248;59.350;18.050;2022-11-20T03:27:46;0.60;;;0.20;;
51184;SDS011;37248;59.350;18.050;2022-11-20T03:30:11;0.90;;;0.27;;
51184;SDS011;37248;59.350;18.050;2022-11-20T03:32:37;1.27;;;0.27;;
51184;SDS011;37248;59.350;18.050;2022-11-20T03:35:02;0.80;;;0.20;;
51184;SDS011;37248;59.350;18.050;2022-11-20T03:37:27;0.83;;;0.30;;
51184;SDS011;37248;59.350;18.050;2022-11-20T03:39:52;0.47;;;0.20;;
51184;SDS011;37248;59.350;18.050;2022-11-20T03:42:18;1.10;;;0.30;;
51184;SDS011;37248;59.350;18.050;2022-11-20T03:45:01;0.45;;;0.20;;
51184;SDS011;37248;59.350;18.050;2022-11-20T03:47:27;0.70;;;0.23;;
51184;SDS011;37248;59.350;18.050;2022-11-20T03:49:52;0.40;;;0.20;;
51184;SDS011;37248;59.350;18.050;2022-11-20T03:52:17;1.43;;;0.37;;
51184;SDS011;37248;59.350;18.050;2022-11-20T03:54:42;0.20;;;0.10;;
51184;SDS011;37248;59.350;18.050;2022-11-20T03:57:07;1.30;;;0.30;;
51184;SDS011;37248;59.350;18.050;2022-11-20T03:59:33;2.07;;;0.30;;
51184;SDS011;37248;59.350;18.050;2022-11-20T04:01:58;1.40;;;0.30;;
51184;SDS011;37248;59.350;18.050;2022-11-20T04:04:23;1.17;;;0.32;;
51184;SDS011;37248;59.350;18.050;2022-11-20T04:06:49;2.07;;;0.30;;
51184;SDS011;37248;59.350;18.050;2022-11-20T04:09:14;1.07;;;0.30;;
51184;SDS011;37248;59.350;18.050;2022-11-20T04:11:40;0.95;;;0.30;;
51184;SDS011;37248;59.350;18.050;2022-11-20T04:14:06;0.50;;;0.20;;
51184;SDS011;37248;59.350;18.050;2022-11-20T04:16:33;0.47;;;0.20;;
51184;SDS011;37248;59.350;18.050;2022-11-20T04:18:59;0.80;;;0.22;;
51184;SDS011;37248;59.350;18.050;2022-11-20T04:21:25;1.30;;;0.30;;
51184;SDS011;37248;59.350;18.050;2022-11-20T04:23:51;1.50;;;0.30;;
51184;SDS011;37248;59.350;18.050;2022-11-20T04:26:17;2.30;;;0.30;;
51184;SDS011;37248;59.350;18.050;2022-11-20T04:28:43;1.00;;;0.17;;
51184;SDS011;37248;59.350;18.050;2022-11-20T04:31:10;2.00;;;0.30;;
51184;SDS011;37248;59.350;18.050;2022-11-20T04:33:36;0.57;;;0.20;;
51184;SDS011;37248;59.350;18.050;2022-11-20T04:36:05;0.70;;;0.20;;
51184;SDS011;37248;59.350;18.050;2022-11-20T04:38:31;0.73;;;0.20;;
51184;SDS011;37248;59.350;18.050;2022-11-20T04:40:57;2.30;;;0.30;;
51184;SDS011;37248;59.350;18.050;2022-11-20T04:43:23;1.65;;;0.20;;
51184;SDS011;37248;59.350;18.050;2022-11-20T04:45:51;1.40;;;0.30;;
51184;SDS011;37248;59.350;18.050;2022-11-20T04:48:17;1.88;;;0.20;;
51184;SDS011;37248;59.350;18.050;2022-11-20T04:50:42;2.93;;;0.30;;
51184;SDS011;37248;59.350;18.050;2022-11-20T04:53:07;0.40;;;0.20;;
51184;SDS011;37248;59.350;18.050;2022-11-20T04:55:32;1.00;;;0.30;;
51184;SDS011;37248;59.350;18.050;2022-11-20T04:57:58;0.90;;;0.40;;
51184;SDS011;37248;59.350;18.050;2022-11-20T05:00:23;0.53;;;0.17;;
51184;SDS011;37248;59.350;18.050;2022-11-20T05:02:48;1.77;;;0.30;;
51184;SDS011;37248;59.350;18.050;2022-11-20T05:05:14;1.30;;;0.20;;
51184;SDS011;37248;59.350;18.050;2022-11-20T05:07:39;0.50;;;0.20;;
51184;SDS011;37248;59.350;18.050;2022-11-20T05:10:04;0.60;;;0.30;;
51184;SDS011;37248;59.350;18.050;2022-11-20T05:12:30;2.20;;;0.30;;
51184;SDS011;37248;59.350;18.050;2022-11-20T05:14:56;1.83;;;0.30;;
51184;SDS011;37248;59.350;18.050;2022-11-20T05:17:21;1.17;;;0.30;;
51184;SDS011;37248;59.350;18.050;2022-11-20T05:19:46;3.03;;;0.40;;
51184;SDS011;37248;59.350;18.050;2022-11-20T05:22:11;2.30;;;0.30;;
51184;SDS011;37248;59.350;18.050;2022-11-20T05:24:37;4.57;;;0.40;;
51184;SDS011;37248;59.350;18.050;2022-11-20T05:27:02;2.63;;;0.30;;
51184;SDS011;37248;59.350;18.050;2022-11-20T05:29:27;2.57;;;0.40;;
51184;SDS011;37248;59.350;18.050;2022-11-20T05:31:53;3.37;;;0.53;;
51184;SDS011;37248;59.350;18.050;2022-11-20T05:34:18;3.07;;;0.50;;
51184;SDS011;37248;59.350;18.050;2022-11-20T05:36:43;1.20;;;0.30;;
51184;SDS011;37248;59.350;18.050;2022-11-20T05:39:08;3.00;;;0.37;;
51184;SDS011;37248;59.350;18.050;2022-11-20T05:41:34;1.05;;;0.30;;
51184;SDS011;37248;59.350;18.050;2022-11-20T05:43:59;4.50;;;0.60;;
51184;SDS011;37248;59.350;18.050;2022-11-20T05:46:25;2.57;;;0.40;;
51184;SDS011;37248;59.350;18.050;2022-11-20T05:48:50;2.00;;;0.20;;
51184;SDS011;37248;59.350;18.050;2022-11-20T05:51:16;5.00;;;0.73;;
51184;SDS011;37248;59.350;18.050;2022-11-20T05:53:42;3.67;;;0.40;;
51184;SDS011;37248;59.350;18.050;2022-11-20T05:56:09;4.27;;;0.43;;
51184;SDS011;37248;59.350;18.050;2022-11-20T05:58:35;2.13;;;0.50;;
51184;SDS011;37248;59.350;18.050;2022-11-20T06:03:55;5.43;;;0.70;;
51184;SDS011;37248;59.350;18.050;2022-11-20T06:06:20;2.80;;;0.30;;
51184;SDS011;37248;59.350;18.050;2022-11-20T06:08:45;7.10;;;0.30;;
51184;SDS011;37248;59.350;18.050;2022-11-20T06:11:11;2.93;;;0.40;;
51184;SDS011;37248;59.350;18.050;2022-11-20T06:13:37;5.35;;;0.70;;
51184;SDS011;37248;59.350;18.050;2022-11-20T06:16:03;4.10;;;0.45;;
51184;SDS011;37248;59.350;18.050;2022-11-20T06:18:29;3.83;;;0.40;;
51184;SDS011;37248;59.350;18.050;2022-11-20T06:21:01;2.65;;;0.47;;
51184;SDS011;37248;59.350;18.050;2022-11-20T06:23:27;4.38;;;0.32;;
51184;SDS011;37248;59.350;18.050;2022-11-20T06:25:52;2.03;;;0.50;;
51184;SDS011;37248;59.350;18.050;2022-11-20T06:28:17;3.87;;;0.33;;
51184;SDS011;37248;59.350;18.050;2022-11-20T06:30:46;2.77;;;0.30;;
51184;SDS011;37248;59.350;18.050;2022-11-20T06:33:11;3.22;;;0.38;;
51184;SDS011;37248;59.350;18.050;2022-11-20T06:35:36;8.57;;;0.77;;
51184;SDS011;37248;59.350;18.050;2022-11-20T06:38:02;7.93;;;0.50;;
51184;SDS011;37248;59.350;18.050;2022-11-20T06:40:27;7.77;;;0.63;;
51184;SDS011;37248;59.350;18.050;2022-11-20T06:42:53;14.50;;;1.00;;
51184;SDS011;37248;59.350;18.050;2022-11-20T06:45:18;4.88;;;0.65;;
51184;SDS011;37248;59.350;18.050;2022-11-20T06:47:43;5.90;;;1.07;;
51184;SDS011;37248;59.350;18.050;2022-11-20T06:50:09;3.97;;;0.83;;
51184;SDS011;37248;59.350;18.050;2022-11-20T06:52:34;4.07;;;0.53;;
51184;SDS011;37248;59.350;18.050;2022-11-20T06:54:59;5.20;;;0.50;;
51184;SDS011;37248;59.350;18.050;2022-11-20T06:57:24;5.40;;;0.40;;
51184;SDS011;37248;59.350;18.050;2022-11-20T06:59:50;6.47;;;0.63;;
51184;SDS011;37248;59.350;18.050;2022-11-20T07:02:15;5.07;;;0.77;;
51184;SDS011;37248;59.350;18.050;2022-11-20T07:04:40;2.83;;;0.33;;
51184;SDS011;37248;59.350;18.050;2022-11-20T07:07:05;3.73;;;0.40;;
51184;SDS011;37248;59.350;18.050;2022-11-20T07:09:31;8.70;;;0.87;;
51184;SDS011;37248;59.350;18.050;2022-11-20T07:11:56;7.55;;;0.90;;
51184;SDS011;37248;59.350;18.050;2022-11-20T07:14:21;6.90;;;0.47;;
51184;SDS011;37248;59.350;18.050;2022-11-20T07:16:47;6.70;;;0.50;;
51184;SDS011;37248;59.350;18.050;2022-11-20T07:19:12;3.50;;;0.37;;
51184;SDS011;37248;59.350;18.050;2022-11-20T07:21:37;3.72;;;0.45;;
51184;SDS011;37248;59.350;18.050;2022-11-20T07:24:02;9.63;;;1.40;;
51184;SDS011;37248;59.350;18.050;2022-11-20T07:26:28;8.02;;;0.70;;
51184;SDS011;37248;59.350;18.050;2022-11-20T07:28:53;6.03;;;0.53;;
51184;SDS011;37248;59.350;18.050;2022-11-20T07:31:19;8.00;;;0.73;;
51184;SDS011;37248;59.350;18.050;2022-11-20T07:33:44;6.80;;;0.40;;
51184;SDS011;37248;59.350;18.050;2022-11-20T07:36:09;4.20;;;0.50;;
51184;SDS011;37248;59.350;18.050;2022-11-20T07:38:34;8.50;;;0.70;;
51184;SDS011;37248;59.350;18.050;2022-11-20T07:40:59;3.93;;;0.60;;
51184;SDS011;37248;59.350;18.050;2022-11-20T07:43:27;4.30;;;0.30;;
51184;SDS011;37248;59.350;18.050;2022-11-20T07:45:56;2.43;;;0.50;;
51184;SDS011;37248;59.350;18.050;2022-11-20T07:48:21;2.93;;;0.40;;
51184;SDS011;37248;59.350;18.050;2022-11-20T07:50:47;3.13;;;0.50;;
51184;SDS011;37248;59.350;18.050;2022-11-20T07:53:12;3.07;;;0.30;;
51184;SDS011;37248;59.350;18.050;2022-11-20T07:55:38;2.20;;;0.38;;
51184;SDS011;37248;59.350;18.050;2022-11-20T07:58:04;1.60;;;0.40;;
51184;SDS011;37248;59.350;18.050;2022-11-20T08:00:29;4.90;;;0.47;;
51184;SDS011;37248;59.350;18.050;2022-11-20T08:02:54;2.90;;;0.33;;
51184;SDS011;37248;59.350;18.050;2022-11-20T08:05:20;6.60;;;0.77;;
51184;SDS011;37248;59.350;18.050;2022-11-20T08:07:45;3.10;;;0.40;;
51184;SDS011;37248;59.350;18.050;2022-11-20T08:10:11;0.70;;;0.37;;
51184;SDS011;37248;59.350;18.050;2022-11-20T08:12:43;2.80;;;0.30;;
51184;SDS011;37248;59.350;18.050;2022-11-20T08:15:27;1.83;;;0.40;;
51184;SDS011;37248;59.350;18.050;2022-11-20T08:17:58;2.47;;;0.33;;
51184;SDS011;37248;59.350;18.050;2022-11-20T08:20:23;5.22;;;0.40;;
51184;SDS011;37248;59.350;18.050;2022-11-20T08:22:49;5.87;;;0.60;;
51184;SDS011;37248;59.350;18.050;2022-11-20T08:25:14;7.13;;;0.87;;
51184;SDS011;37248;59.350;18.050;2022-11-20T08:27:39;3.83;;;0.53;;
51184;SDS011;37248;59.350;18.050;2022-11-20T08:30:04;9.50;;;0.63;;
51184;SDS011;37248;59.350;18.050;2022-11-20T08:32:30;11.57;;;0.90;;
51184;SDS011;37248;59.350;18.050;2022-11-20T08:34:55;7.10;;;0.97;;
51184;SDS011;37248;59.350;18.050;2022-11-20T08:37:20;14.00;;;0.90;;
51184;SDS011;37248;59.350;18.050;2022-11-20T08:39:46;9.57;;;0.87;;
51184;SDS011;37248;59.350;18.050;2022-11-20T08:42:11;11.45;;;1.65;;
51184;SDS011;37248;59.350;18.050;2022-11-20T08:44:36;8.20;;;0.63;;
51184;SDS011;37248;59.350;18.050;2022-11-20T08:47:02;14.13;;;1.10;;
51184;SDS011;37248;59.350;18.050;2022-11-20T08:49:27;7.10;;;1.00;;
51184;SDS011;37248;59.350;18.050;2022-11-20T08:51:52;5.87;;;0.60;;
51184;SDS011;37248;59.350;18.050;2022-11-20T08:54:20;6.88;;;0.50;;
51184;SDS011;37248;59.350;18.050;2022-11-20T08:56:46;7.53;;;0.68;;
51184;SDS011;37248;59.350;18.050;2022-11-20T08:59:12;5.30;;;0.60;;
51184;SDS011;37248;59.350;18.050;2022-11-20T09:01:37;6.17;;;0.63;;
51184;SDS011;37248;59.350;18.050;2022-11-20T09:04:03;3.20;;;0.70;;
51184;SDS011;37248;59.350;18.050;2022-11-20T09:06:34;3.45;;;0.90;;
51184;SDS011;37248;59.350;18.050;2022-11-20T09:09:02;5.50;;;0.60;;
51184;SDS011;37248;59.350;18.050;2022-11-20T09:11:34;3.63;;;0.43;;
51184;SDS011;37248;59.350;18.050;2022-11-20T09:14:01;4.45;;;1.00;;
51184;SDS011;37248;59.350;18.050;2022-11-20T09:16:36;5.90;;;0.60;;
51184;SDS011;37248;59.350;18.050;2022-11-20T09:26:40;3.45;;;0.50;;
51184;SDS011;37248;59.350;18.050;2022-11-20T09:29:06;4.30;;;0.70;;
51184;SDS011;37248;59.350;18.050;2022-11-20T09:31:31;1.70;;;0.60;;
51184;SDS011;37248;59.350;18.050;2022-11-20T09:33:57;4.50;;;0.57;;
51184;SDS011;37248;59.350;18.050;2022-11-20T09:36:22;4.37;;;1.00;;
51184;SDS011;37248;59.350;18.050;2022-11-20T09:38:47;3.40;;;0.40;;
51184;SDS011;37248;59.350;18.050;2022-11-20T09:54:02;4.20;;;0.47;;
51184;SDS011;37248;59.350;18.050;2022-11-20T09:56:30;5.80;;;0.88;;
51184;SDS011;37248;59.350;18.050;2022-11-20T09:58:59;1.83;;;0.50;;
51184;SDS011;37248;59.350;18.050;2022-11-20T10:01:29;2.60;;;0.40;;
51184;SDS011;37248;59.350;18.050;2022-11-20T10:04:06;2.10;;;0.70;;
51184;SDS011;37248;59.350;18.050;2022-11-20T10:07:19;6.00;;;0.77;;
51184;SDS011;37248;59.350;18.050;2022-11-20T10:11:58;7.10;;;0.70;;
51184;SDS011;37248;59.350;18.050;2022-11-20T10:14:29;0.98;;;0.45;;
51184;SDS011;37248;59.350;18.050;2022-11-20T10:19:41;4.00;;;0.80;;
51184;SDS011;37248;59.350;18.050;2022-11-20T10:29:38;4.43;;;0.55;;
51184;SDS011;37248;59.350;18.050;2022-11-20T10:32:07;4.28;;;0.90;;
51184;SDS011;37248;59.350;18.050;2022-11-20T10:34:48;1.98;;;0.63;;
51184;SDS011;37248;59.350;18.050;2022-11-20T10:37:16;3.42;;;0.65;;
51184;SDS011;37248;59.350;18.050;2022-11-20T10:42:08;3.37;;;0.50;;
51184;SDS011;37248;59.350;18.050;2022-11-20T10:44:36;3.40;;;0.60;;
51184;SDS011;37248;59.350;18.050;2022-11-20T10:47:20;4.80;;;0.70;;
51184;SDS011;37248;59.350;18.050;2022-11-20T10:49:51;3.77;;;0.70;;
51184;SDS011;37248;59.350;18.050;2022-11-20T11:00:06;2.27;;;0.53;;
51184;SDS011;37248;59.350;18.050;2022-11-20T11:05:04;2.60;;;0.50;;
51184;SDS011;37248;59.350;18.050;2022-11-20T11:07:35;1.65;;;0.63;;
51184;SDS011;37248;59.350;18.050;2022-11-20T11:10:05;5.20;;;0.60;;
51184;SDS011;37248;59.350;18.050;2022-11-20T11:12:37;4.28;;;0.88;;
51184;SDS011;37248;59.350;18.050;2022-11-20T11:15:11;6.95;;;0.80;;
51184;SDS011;37248;59.350;18.050;2022-11-20T11:17:37;2.05;;;0.60;;
51184;SDS011;37248;59.350;18.050;2022-11-20T11:22:43;1.37;;;0.60;;
51184;SDS011;37248;59.350;18.050;2022-11-20T11:25:11;1.80;;;0.60;;
51184;SDS011;37248;59.350;18.050;2022-11-20T11:27:47;2.63;;;0.83;;
51184;SDS011;37248;59.350;18.050;2022-11-20T11:30:14;3.40;;;0.60;;
51184;SDS011;37248;59.350;18.050;2022-11-20T11:32:39;3.00;;;0.63;;
51184;SDS011;37248;59.350;18.050;2022-11-20T11:35:05;2.70;;;1.10;;
51184;SDS011;37248;59.350;18.050;2022-11-20T11:37:35;2.42;;;0.60;;
51184;SDS011;37248;59.350;18.050;2022-11-20T11:40:01;6.22;;;0.70;;
51184;SDS011;37248;59.350;18.050;2022-11-20T11:42:27;3.00;;;0.80;;
51184;SDS011;37248;59.350;18.050;2022-11-20T11:44:53;5.45;;;0.90;;
51184;SDS011;37248;59.350;18.050;2022-11-20T11:52:44;4.70;;;0.90;;
51184;SDS011;37248;59.350;18.050;2022-11-20T11:55:12;3.97;;;0.60;;
51184;SDS011;37248;59.350;18.050;2022-11-20T11:57:45;5.10;;;0.90;;
51184;SDS011;37248;59.350;18.050;2022-11-20T12:00:12;6.00;;;0.90;;
51184;SDS011;37248;59.350;18.050;2022-11-20T12:07:39;56.20;;;4.43;;
51184;SDS011;37248;59.350;18.050;2022-11-20T12:10:08;42.10;;;3.78;;
51184;SDS011;37248;59.350;18.050;2022-11-20T12:12:38;36.50;;;3.95;;
51184;SDS011;37248;59.350;18.050;2022-11-20T12:15:09;26.35;;;2.80;;
51184;SDS011;37248;59.350;18.050;2022-11-20T12:17:36;40.00;;;2.90;;
51184;SDS011;37248;59.350;18.050;2022-11-20T12:20:01;23.73;;;3.17;;
51184;SDS011;37248;59.350;18.050;2022-11-20T12:30:16;14.93;;;2.03;;
51184;SDS011;37248;59.350;18.050;2022-11-20T12:53:49;7.63;;;0.80;;
51184;SDS011;37248;59.350;18.050;2022-11-20T12:56:19;9.45;;;1.17;;
51184;SDS011;37248;59.350;18.050;2022-11-20T13:01:24;5.13;;;0.88;;
51184;SDS011;37248;59.350;18.050;2022-11-20T13:06:50;6.95;;;0.60;;
51184;SDS011;37248;59.350;18.050;2022-11-20T13:09:17;5.17;;;0.73;;
51184;SDS011;37248;59.350;18.050;2022-11-20T13:14:36;17.97;;;0.93;;
51184;SDS011;37248;59.350;18.050;2022-11-20T13:19:34;8.13;;;0.98;;
51184;SDS011;37248;59.350;18.050;2022-11-20T13:21:59;6.18;;;0.82;;
51184;SDS011;37248;59.350;18.050;2022-11-20T13:24:29;8.25;;;0.95;;
51184;SDS011;37248;59.350;18.050;2022-11-20T13:29:25;7.15;;;0.90;;
51184;SDS011;37248;59.350;18.050;2022-11-20T13:31:51;17.43;;;1.00;;
51184;SDS011;37248;59.350;18.050;2022-11-20T13:34:23;5.90;;;0.80;;
51184;SDS011;37248;59.350;18.050;2022-11-20T13:36:49;13.27;;;1.00;;
51184;SDS011;37248;59.350;18.050;2022-11-20T13:39:23;5.75;;;0.77;;
51184;SDS011;37248;59.350;18.050;2022-11-20T13:41:53;6.72;;;0.70;;
51184;SDS011;37248;59.350;18.050;2022-11-20T13:44:29;4.18;;;0.65;;
51184;SDS011;37248;59.350;18.050;2022-11-20T13:46:54;9.13;;;1.00;;
51184;SDS011;37248;59.350;18.050;2022-11-20T13:49:27;11.13;;;1.10;;
51184;SDS011;37248;59.350;18.050;2022-11-20T13:51:57;9.07;;;0.90;;
51184;SDS011;37248;59.350;18.050;2022-11-20T14:05:24;4.53;;;0.60;;
51184;SDS011;37248;59.350;18.050;2022-11-20T14:07:50;2.87;;;0.60;;
51184;SDS011;37248;59.350;18.050;2022-11-20T14:10:23;3.67;;;0.52;;
51184;SDS011;37248;59.350;18.050;2022-11-20T14:12:49;4.18;;;0.80;;
51184;SDS011;37248;59.350;18.050;2022-11-20T14:17:53;4.95;;;0.65;;
51184;SDS011;37248;59.350;18.050;2022-11-20T14:20:18;4.17;;;0.90;;
51184;SDS011;37248;59.350;18.050;2022-11-20T14:22:51;2.65;;;0.90;;
51184;SDS011;37248;59.350;18.050;2022-11-20T14:27:44;3.85;;;1.10;;
51184;SDS011;37248;59.350;18.050;2022-11-20T14:30:12;8.20;;;2.03;;
51184;SDS011;37248;59.350;18.050;2022-11-20T14:32:39;5.15;;;1.17;;
51184;SDS011;37248;59.350;18.050;2022-11-20T14:35:08;7.07;;;1.60;;
51184;SDS011;37248;59.350;18.050;2022-11-20T14:37:36;7.40;;;2.20;;
51184;SDS011;37248;59.350;18.050;2022-11-20T14:40:01;8.85;;;1.70;;
51184;SDS011;37248;59.350;18.050;2022-11-20T14:42:27;6.07;;;1.50;;
51184;SDS011;37248;59.350;18.050;2022-11-20T14:44:54;9.10;;;1.43;;
51184;SDS011;37248;59.350;18.050;2022-11-20T14:47:21;3.90;;;1.23;;
51184;SDS011;37248;59.350;18.050;2022-11-20T14:49:46;5.82;;;1.63;;
51184;SDS011;37248;59.350;18.050;2022-11-20T14:54:47;3.30;;;1.20;;
51184;SDS011;37248;59.350;18.050;2022-11-20T14:57:23;6.05;;;1.80;;
51184;SDS011;37248;59.350;18.050;2022-11-20T14:59:49;5.25;;;1.48;;
51184;SDS011;37248;59.350;18.050;2022-11-20T15:02:14;4.53;;;1.30;;
51184;SDS011;37248;59.350;18.050;2022-11-20T15:04:49;2.88;;;1.33;;
51184;SDS011;37248;59.350;18.050;2022-11-20T15:07:28;2.67;;;1.20;;
51184;SDS011;37248;59.350;18.050;2022-11-20T15:10:00;4.93;;;1.48;;
51184;SDS011;37248;59.350;18.050;2022-11-20T15:12:26;4.10;;;1.25;;
51184;SDS011;37248;59.350;18.050;2022-11-20T15:14:51;3.20;;;1.20;;
51184;SDS011;37248;59.350;18.050;2022-11-20T15:17:17;4.57;;;1.13;;
51184;SDS011;37248;59.350;18.050;2022-11-20T15:19:42;2.67;;;1.17;;
51184;SDS011;37248;59.350;18.050;2022-11-20T15:22:09;1.77;;;1.07;;
51184;SDS011;37248;59.350;18.050;2022-11-20T15:24:37;7.67;;;1.40;;
51184;SDS011;37248;59.350;18.050;2022-11-20T15:27:02;2.10;;;1.10;;
51184;SDS011;37248;59.350;18.050;2022-11-20T15:29:28;2.50;;;1.17;;
51184;SDS011;37248;59.350;18.050;2022-11-20T15:31:53;3.40;;;1.03;;
51184;SDS011;37248;59.350;18.050;2022-11-20T15:34:19;5.72;;;1.20;;
51184;SDS011;37248;59.350;18.050;2022-11-20T15:36:44;2.38;;;1.00;;
51184;SDS011;37248;59.350;18.050;2022-11-20T15:39:09;2.53;;;1.10;;
51184;SDS011;37248;59.350;18.050;2022-11-20T15:41:36;3.30;;;1.00;;
51184;SDS011;37248;59.350;18.050;2022-11-20T15:44:02;1.98;;;0.93;;
51184;SDS011;37248;59.350;18.050;2022-11-20T15:46:28;4.93;;;1.13;;
51184;SDS011;37248;59.350;18.050;2022-11-20T15:48:54;3.30;;;1.10;;
51184;SDS011;37248;59.350;18.050;2022-11-20T15:51:27;4.22;;;1.00;;
51184;SDS011;37248;59.350;18.050;2022-11-20T15:53:53;5.70;;;1.00;;
51184;SDS011;37248;59.350;18.050;2022-11-20T15:56:19;4.97;;;1.23;;
51184;SDS011;37248;59.350;18.050;2022-11-20T15:58:44;5.30;;;1.10;;
51184;SDS011;37248;59.350;18.050;2022-11-20T16:01:10;4.20;;;0.90;;
51184;SDS011;37248;59.350;18.050;2022-11-20T16:03:36;3.00;;;0.80;;
51184;SDS011;37248;59.350;18.050;2022-11-20T16:06:01;3.20;;;1.13;;
51184;SDS011;37248;59.350;18.050;2022-11-20T16:08:26;3.13;;;1.53;;
51184;SDS011;37248;59.350;18.050;2022-11-20T16:10:52;6.70;;;2.10;;
51184;SDS011;37248;59.350;18.050;2022-11-20T16:13:17;5.07;;;2.73;;
51184;SDS011;37248;59.350;18.050;2022-11-20T16:16:03;8.53;;;3.23;;
51184;SDS011;37248;59.350;18.050;2022-11-20T16:18:30;7.68;;;3.72;;
51184;SDS011;37248;59.350;18.050;2022-11-20T16:20:55;9.50;;;3.70;;
51184;SDS011;37248;59.350;18.050;2022-11-20T16:23:21;7.13;;;3.83;;
51184;SDS011;37248;59.350;18.050;2022-11-20T16:25:46;9.90;;;3.33;;
51184;SDS011;37248;59.350;18.050;2022-11-20T16:28:11;8.13;;;3.47;;
51184;SDS011;37248;59.350;18.050;2022-11-20T16:30:37;7.87;;;3.67;;
51184;SDS011;37248;59.350;18.050;2022-11-20T16:33:02;8.40;;;3.73;;
51184;SDS011;37248;59.350;18.050;2022-11-20T16:35:28;8.23;;;3.57;;
51184;SDS011;37248;59.350;18.050;2022-11-20T16:37:54;9.57;;;3.85;;
51184;SDS011;37248;59.350;18.050;2022-11-20T16:40:20;17.20;;;3.70;;
51184;SDS011;37248;59.350;18.050;2022-11-20T16:42:47;14.77;;;3.38;;
51184;SDS011;37248;59.350;18.050;2022-11-20T16:45:12;17.17;;;4.30;;